Cadiz, Kentucky
Current Conditions -  °F | °C
As of 2:58 AM on Saturday 29 Nov 2014 (Local Time) from KHOP Reporting Station
Broken Clouds Broken Clouds  
Wind Chill: 38°   Ceiling: 3800
Heat Index: 43°   Visibility: 10mi
Dew Point: 26°   Wind: 8mph
Humidity: 51%   Direction: 170°S
Pressure: 30.06"   Gusts: NA
Location:  36.87°N, 87.84°W
Report Text: KHOP 290858Z AUTO 17007KT 10SM BKN038 06/M04 A3006 RMK AO2 SLP183 T00601036 58006 $
Loading
Personal Weather Stations






























Interactive Weather Map New forecast layout! Learn more

10-Day Weather Forecast

Advertisements
Track Severe Weather on mobile